SHMÚ 65 rokov / 1954-2019 - Ďakujeme našim partnerom


SHMÚ vydal meteorologické výstrahy na Vietor na horách Zobraziť výstrahy

METAR

Letisková meteorologická správa METAR

Meteorologické informácie z ďalších profesionálnych meteorologických staníc SHMÚ zobrazené v tvare zodpovedajúcom pravidlám kódovania správ METAR sú uvedené v položke „METSYN

Informácie o správe METAR

14.10.2019 - 16:30 UTC

METAR LZIB 141630Z 14005KT CAVOK 18/12 Q1017 NOSIG=
METAR LZKZ 141630Z VRB02KT CAVOK 16/10 Q1020=
METAR LZPP 141630Z 13007KT CAVOK 20/12 Q1018=
METAR LZSL 141630Z 35004KT CAVOK 16/11 Q1020=
METAR LZTT 141630Z 34004KT CAVOK 12/10 Q1020=
METAR LZZI 141630Z VRB02KT CAVOK 15/13 Q1019=

14.10.2019 - 16:00 UTC

METAR LZIB 141600Z 16005KT CAVOK 20/12 Q1017 NOSIG=
METAR LZKZ 141600Z 19004KT CAVOK 18/11 Q1020 NOSIG=
METAR LZPP 141600Z 13006KT CAVOK 21/13 Q1018=
METAR LZSL 141600Z 36002KT CAVOK 17/11 Q1020=
METAR LZTT 141600Z VRB01KT CAVOK 15/12 Q1020 NOSIG=
METAR LZZI 141600Z VRB01KT CAVOK 17/14 Q1018=

14.10.2019 - 16:00 UTC

METAR LZMC 141600Z 18004KT CAVOK 20/12 Q1017=
METAR LZPW 141600Z 05003KT CAVOK 16/11 Q1020=

skok na menu ↑


skok na začiatok stránky ↑